createdAt,value
2022-11-23T00:04:47.151Z,86.03
2022-11-23T00:09:48.691Z,85.95
2022-11-23T00:14:50.244Z,85.73
2022-11-23T00:19:51.858Z,85.88
2022-11-23T00:24:53.437Z,86.53
2022-11-23T00:29:55.055Z,86.84
2022-11-23T00:34:56.598Z,86.82
2022-11-23T00:39:58.148Z,87.16
2022-11-23T00:44:59.710Z,87.37
2022-11-23T00:50:01.293Z,86.61
2022-11-23T00:55:02.984Z,87.19
2022-11-23T01:00:06.827Z,87.20
2022-11-23T01:05:08.785Z,87.58
2022-11-23T01:10:10.357Z,87.36
2022-11-23T01:15:11.898Z,86.98
2022-11-23T01:20:13.479Z,87.36
2022-11-23T01:25:15.038Z,87.17
2022-11-23T01:30:16.897Z,87.87
2022-11-23T01:35:18.491Z,87.54
2022-11-23T01:40:20.223Z,87.69
2022-11-23T01:45:36.224Z,87.08
2022-11-23T01:50:38.674Z,87.54
2022-11-23T01:55:40.585Z,86.96
2022-11-23T02:00:42.500Z,87.31
2022-11-23T02:05:49.301Z,86.84
2022-11-23T02:10:50.926Z,86.49
2022-11-23T02:15:54.219Z,86.88
2022-11-23T02:21:01.322Z,86.98
2022-11-23T02:26:08.128Z,86.61
2022-11-23T02:31:09.864Z,86.47
2022-11-23T02:36:44.538Z,87.14
2022-11-23T02:41:54.921Z,86.42
2022-11-23T02:46:57.917Z,86.68
2022-11-23T02:51:59.699Z,86.58
2022-11-23T02:57:01.278Z,86.88
2022-11-23T03:02:05.058Z,86.52
2022-11-23T03:07:06.672Z,86.56
2022-11-23T03:12:08.435Z,86.54
2022-11-23T03:17:10.046Z,86.59
2022-11-23T03:22:11.768Z,86.92
2022-11-23T03:27:13.352Z,86.71
2022-11-23T03:32:14.990Z,86.64
2022-11-23T03:37:16.554Z,86.76
2022-11-23T03:42:18.143Z,86.33
2022-11-23T03:47:19.720Z,86.92
2022-11-23T03:52:21.296Z,86.83
2022-11-23T03:57:22.884Z,86.56
2022-11-23T04:02:24.710Z,87.15
2022-11-23T04:07:26.282Z,87.20
2022-11-23T04:12:28.090Z,87.63
2022-11-23T04:17:29.664Z,87.55
2022-11-23T04:22:31.432Z,87.75
2022-11-23T04:27:33.057Z,87.53
2022-11-23T04:32:34.623Z,87.85
2022-11-23T04:37:36.176Z,87.69
2022-11-23T04:42:37.748Z,87.78
2022-11-23T04:47:39.412Z,86.93
2022-11-23T04:52:40.956Z,87.60
2022-11-23T04:57:42.479Z,87.22
2022-11-23T05:02:45.153Z,87.45
2022-11-23T05:07:46.762Z,87.32
2022-11-23T05:12:48.364Z,87.52
2022-11-23T05:17:49.941Z,87.47
2022-11-23T05:22:51.474Z,87.03
2022-11-23T05:27:53.095Z,86.78
2022-11-23T05:32:54.686Z,87.19
2022-11-23T05:37:56.455Z,87.08
2022-11-23T05:42:59.051Z,86.62
2022-11-23T05:48:00.631Z,87.56
2022-11-23T05:53:02.399Z,87.02
2022-11-23T05:58:03.947Z,86.50
2022-11-23T06:03:05.530Z,87.04
2022-11-23T06:08:07.096Z,87.05
2022-11-23T06:13:08.660Z,86.89
2022-11-23T06:18:10.297Z,86.93
2022-11-23T06:23:11.854Z,87.30
2022-11-23T06:28:13.451Z,87.40
2022-11-23T06:33:15.009Z,87.37
2022-11-23T06:38:16.598Z,86.58
2022-11-23T06:43:18.255Z,87.31
2022-11-23T06:48:19.823Z,86.88
2022-11-23T06:53:21.373Z,86.94
2022-11-23T06:58:22.950Z,87.00
2022-11-23T07:03:24.852Z,87.02
2022-11-23T07:08:27.526Z,86.76
2022-11-23T07:13:29.184Z,86.76
2022-11-23T07:18:30.834Z,86.90
2022-11-23T07:23:32.438Z,86.85
2022-11-23T07:28:34.070Z,87.22
2022-11-23T07:33:35.696Z,87.33
2022-11-23T07:38:37.305Z,86.50
2022-11-23T07:43:38.900Z,86.86
2022-11-23T07:48:40.437Z,86.85
2022-11-23T07:53:42.207Z,87.29
2022-11-23T07:58:43.780Z,87.17
2022-11-23T08:03:46.594Z,86.42
2022-11-23T08:08:48.310Z,86.02
2022-11-23T08:13:49.906Z,85.79
2022-11-23T08:18:51.527Z,86.61
2022-11-23T08:23:53.073Z,86.22
2022-11-23T08:28:54.652Z,86.31
2022-11-23T08:34:00.299Z,86.80
2022-11-23T08:39:05.181Z,86.50
2022-11-23T08:44:09.812Z,86.44
2022-11-23T08:49:11.396Z,86.29
2022-11-23T08:54:12.974Z,86.14
2022-11-23T08:59:14.549Z,85.53
2022-11-23T09:04:20.480Z,85.83
2022-11-23T09:09:22.756Z,85.85
2022-11-23T09:14:24.772Z,85.53
2022-11-23T09:19:26.531Z,85.50
2022-11-23T09:24:28.269Z,84.85
2022-11-23T09:29:29.899Z,84.82
2022-11-23T09:34:31.735Z,84.77
2022-11-23T09:39:33.559Z,84.35
2022-11-23T09:44:53.698Z,84.09
2022-11-23T09:50:09.302Z,85.24
2022-11-23T09:55:36.850Z,84.56
2022-11-23T10:00:47.800Z,84.50
2022-11-23T10:06:19.647Z,84.54
2022-11-23T10:11:43.932Z,85.05
2022-11-23T10:17:27.080Z,84.94
2022-11-23T10:22:42.903Z,84.81
2022-11-23T10:27:47.780Z,84.96
2022-11-23T10:33:21.897Z,84.50
2022-11-23T10:38:27.090Z,84.90
2022-11-23T10:43:34.938Z,84.53
2022-11-23T10:48:37.020Z,83.53
2022-11-23T10:53:38.846Z,83.34
2022-11-23T10:58:45.700Z,84.87
2022-11-23T11:03:47.273Z,83.96
2022-11-23T11:08:51.566Z,83.49
2022-11-23T11:14:16.909Z,82.96
2022-11-23T11:19:25.878Z,81.15
2022-11-23T11:24:39.969Z,80.76
2022-11-23T11:29:44.505Z,79.29
2022-11-23T11:34:52.480Z,79.46
2022-11-23T11:40:30.060Z,79.40
2022-11-23T11:45:36.860Z,78.19
2022-11-23T11:50:58.451Z,76.88
2022-11-23T11:56:40.456Z,78.25
2022-11-23T12:01:47.760Z,78.66
2022-11-23T12:06:56.970Z,78.34
2022-11-23T12:11:58.895Z,78.89
2022-11-23T12:17:32.839Z,78.27
2022-11-23T12:22:43.723Z,77.35
2022-11-23T12:27:51.462Z,77.83
2022-11-23T12:33:01.965Z,78.11
2022-11-23T12:38:27.846Z,77.48
2022-11-23T12:43:52.753Z,77.47
2022-11-23T12:49:13.354Z,77.87
2022-11-23T12:54:35.394Z,77.87
2022-11-23T12:59:46.320Z,78.02
2022-11-23T13:04:59.766Z,78.58
2022-11-23T13:10:21.169Z,78.82
2022-11-23T13:15:38.882Z,79.25
2022-11-23T13:21:19.115Z,79.68
2022-11-23T13:26:23.683Z,79.64
2022-11-23T13:31:36.267Z,79.85
2022-11-23T13:37:11.568Z,80.18
2022-11-23T13:42:05.929Z,80.10
2022-11-23T13:47:27.743Z,81.54
2022-11-23T13:52:31.211Z,81.07
2022-11-23T13:57:33.343Z,81.34
2022-11-23T14:02:34.971Z,81.94
2022-11-23T14:07:47.095Z,82.09
2022-11-23T14:12:56.951Z,82.13
2022-11-23T14:18:20.064Z,81.79
2022-11-23T14:23:46.355Z,82.48
2022-11-23T14:29:06.251Z,81.98
2022-11-23T14:34:37.916Z,82.23
2022-11-23T14:39:56.332Z,82.59
2022-11-23T14:45:05.104Z,82.64
2022-11-23T14:50:20.192Z,82.77
2022-11-23T14:55:24.985Z,83.14
2022-11-23T15:00:36.387Z,82.97
2022-11-23T15:05:40.026Z,83.35
2022-11-23T15:11:03.042Z,83.79
2022-11-23T15:16:05.267Z,83.72
2022-11-23T15:21:23.886Z,83.23
2022-11-23T15:32:14.431Z,83.53
2022-11-23T15:37:14.595Z,83.72
2022-11-23T15:42:18.998Z,83.50
2022-11-23T15:47:27.790Z,83.64
2022-11-23T15:52:35.839Z,84.21
2022-11-23T15:57:39.649Z,84.17
2022-11-23T16:02:42.446Z,83.82
2022-11-23T16:07:59.864Z,84.78
2022-11-23T16:13:03.978Z,84.34
2022-11-23T16:18:19.906Z,84.62
2022-11-23T16:23:27.566Z,84.88
2022-11-23T16:28:36.553Z,84.64
2022-11-23T16:33:38.105Z,84.78
2022-11-23T16:38:39.639Z,85.03
2022-11-23T16:43:41.232Z,85.45
2022-11-23T16:48:42.846Z,85.38
2022-11-23T16:59:15.575Z,85.80
2022-11-23T17:04:17.273Z,85.19
2022-11-23T17:09:18.887Z,85.73
2022-11-23T17:14:24.129Z,85.12
2022-11-23T17:19:28.238Z,85.63
2022-11-23T17:24:29.957Z,85.43
2022-11-23T17:29:32.378Z,85.33
2022-11-23T17:34:34.800Z,85.26
2022-11-23T17:39:36.549Z,85.61
2022-11-23T17:44:38.802Z,85.60
2022-11-23T17:49:40.560Z,84.90
2022-11-23T17:54:42.128Z,85.31
2022-11-23T17:59:43.920Z,85.25
2022-11-23T18:04:46.582Z,85.86
2022-11-23T18:09:48.992Z,86.07
2022-11-23T18:14:50.532Z,86.38
2022-11-23T18:19:52.163Z,86.34
2022-11-23T18:24:53.726Z,86.57
2022-11-23T18:29:55.683Z,86.97
2022-11-23T18:34:57.354Z,86.18
2022-11-23T18:39:58.885Z,86.54
2022-11-23T18:45:01.259Z,87.17
2022-11-23T18:50:06.492Z,86.36
2022-11-23T18:55:08.538Z,87.00
2022-11-23T19:00:12.570Z,86.60
2022-11-23T19:05:14.161Z,86.22
2022-11-23T19:10:16.159Z,86.51
2022-11-23T19:15:17.908Z,86.14
2022-11-23T19:20:21.430Z,86.55
2022-11-23T19:25:23.081Z,86.82
2022-11-23T19:30:24.633Z,86.32
2022-11-23T19:35:26.179Z,86.00
2022-11-23T19:40:27.726Z,86.13
2022-11-23T19:45:29.829Z,86.20
2022-11-23T19:50:31.378Z,86.13
2022-11-23T19:55:33.012Z,85.85
2022-11-23T20:00:34.569Z,86.04
2022-11-23T20:05:36.172Z,86.04
2022-11-23T20:10:37.764Z,86.59
2022-11-23T20:15:39.402Z,86.60
2022-11-23T20:20:45.946Z,86.29
2022-11-23T20:25:49.057Z,85.86
2022-11-23T20:30:51.620Z,85.88
2022-11-23T20:35:53.279Z,85.83
2022-11-23T20:40:54.851Z,85.76
2022-11-23T20:45:58.498Z,86.10
2022-11-23T20:51:00.063Z,85.99
2022-11-23T20:56:12.822Z,86.25
2022-11-23T21:01:18.738Z,86.10
2022-11-23T21:06:21.559Z,86.10
2022-11-23T21:11:46.561Z,85.89
2022-11-23T21:16:53.478Z,85.76
2022-11-23T21:21:56.823Z,86.16
2022-11-23T21:26:58.386Z,86.21
2022-11-23T21:32:03.571Z,85.60
2022-11-23T21:37:05.129Z,85.33
2022-11-23T21:42:07.384Z,85.25
2022-11-23T21:47:09.459Z,85.24
2022-11-23T21:52:11.014Z,84.85
2022-11-23T21:57:12.560Z,84.93
2022-11-23T22:08:29.498Z,85.07
2022-11-23T22:13:36.745Z,84.38
2022-11-23T22:18:39.297Z,85.05
2022-11-23T22:23:41.510Z,84.81
2022-11-23T22:28:45.833Z,84.85
2022-11-23T22:33:48.519Z,84.93
2022-11-23T22:39:02.744Z,84.64
2022-11-23T22:44:10.312Z,85.00
2022-11-23T22:49:12.431Z,84.42
2022-11-23T22:54:14.168Z,83.89
2022-11-23T22:59:15.908Z,83.71
2022-11-23T23:04:17.781Z,84.63
2022-11-23T23:09:19.535Z,84.43
2022-11-23T23:14:21.353Z,84.75
2022-11-23T23:19:23.478Z,84.91
2022-11-23T23:24:25.261Z,84.86
2022-11-23T23:29:27.095Z,84.23
2022-11-23T23:34:28.843Z,84.72
2022-11-23T23:39:30.652Z,84.87
2022-11-23T23:44:32.721Z,84.85
2022-11-23T23:49:34.752Z,85.25
2022-11-23T23:54:36.664Z,84.87
2022-11-23T23:59:38.497Z,85.07
